Time;durP1;ratioP1;P1;durP2;ratioP2;P2;SDS_P1;SDS_P2;PMS_P1;PMS_P2;Temp;Humidity;BMP_temperature;BMP_pressure;BME280_temperature;BME280_humidity;BME280_pressure;Samples;Min_cycle;Max_cycle;Signal;HPM_P1;HPM_P2
2021/10/02 00:31:55;;;;;;;7.43;6.78;;;12.00;99.90;;;;;;5054019;28;20048;-78
2021/10/02 00:34:56;;;;;;;8.32;7.65;;;12.00;99.90;;;;;;5042334;28;20044;-77
2021/10/02 00:38:09;;;;;;;7.40;6.80;;;12.00;99.90;;;;;;5053403;28;20033;-78
2021/10/02 00:45:41;;;;;;;9.40;8.52;;;12.00;99.90;;;;;;5054373;28;20053;-77
2021/10/02 00:48:09;;;;;;;8.50;7.70;;;12.00;99.90;;;;;;5054445;28;20040;-77
2021/10/02 00:50:35;;;;;;;11.07;8.93;;;12.00;99.90;;;;;;5062819;28;20377;-77
2021/10/02 00:53:02;;;;;;;10.80;9.40;;;12.00;99.90;;;;;;5054587;28;20052;-78
2021/10/02 00:55:28;;;;;;;8.43;7.63;;;12.00;99.90;;;;;;5054272;28;20037;-78
2021/10/02 00:57:54;;;;;;;9.95;9.00;;;12.00;99.90;;;;;;5062371;28;20037;-77
2021/10/02 01:00:21;;;;;;;8.10;7.30;;;12.00;99.90;;;;;;5052977;28;20477;-78
2021/10/02 01:03:05;;;;;;;9.23;8.43;;;12.00;99.90;;;;;;5054286;28;20025;-77
2021/10/02 01:05:34;;;;;;;11.15;7.53;;;12.10;99.90;;;;;;5040595;28;20029;-77
2021/10/02 01:08:23;;;;;;;7.57;6.88;;;12.00;99.90;;;;;;5036717;28;20370;-77
2021/10/02 01:10:57;;;;;;;11.57;7.50;;;12.10;99.90;;;;;;5027804;28;20037;-78
2021/10/02 01:13:30;;;;;;;8.45;7.45;;;12.10;99.90;;;;;;5036650;28;20037;-78
2021/10/02 01:16:02;;;;;;;8.00;7.20;;;12.10;99.90;;;;;;5060159;28;20398;-78
2021/10/02 01:18:43;;;;;;;7.25;6.65;;;12.20;99.90;;;;;;5054981;28;20033;-77
2021/10/02 01:21:47;;;;;;;10.00;6.97;;;12.20;99.90;;;;;;5062402;28;20045;-78
2021/10/02 01:24:50;;;;;;;8.00;7.35;;;12.30;99.90;;;;;;5053856;28;20128;-78
2021/10/02 01:27:44;;;;;;;10.80;7.35;;;12.20;99.90;;;;;;5054119;28;20040;-78
2021/10/02 01:30:34;;;;;;;8.93;8.13;;;12.20;99.90;;;;;;5047393;28;20029;-78
2021/10/02 01:33:21;;;;;;;8.50;7.80;;;12.20;99.90;;;;;;5053317;28;20067;-78
2021/10/02 01:36:00;;;;;;;11.18;8.52;;;12.20;99.90;;;;;;5061846;28;20024;-79
2021/10/02 01:49:33;;;;;;;8.70;7.78;;;12.20;99.90;;;;;;5051332;28;20048;-77
2021/10/02 01:52:00;;;;;;;8.20;7.38;;;12.20;99.90;;;;;;5056589;28;20024;-77
2021/10/02 01:54:28;;;;;;;8.23;7.53;;;12.10;99.90;;;;;;5066863;28;20464;-77
2021/10/02 01:56:56;;;;;;;7.70;7.00;;;12.10;99.90;;;;;;5059216;28;20470;-77
2021/10/02 01:59:26;;;;;;;8.63;7.82;;;12.10;99.90;;;;;;5035609;28;20477;-77
2021/10/02 02:01:54;;;;;;;10.13;9.10;;;12.10;99.90;;;;;;5054313;28;20025;-77
2021/10/02 02:04:22;;;;;;;8.90;8.00;;;12.10;99.90;;;;;;5056585;28;20052;-77
2021/10/02 02:06:49;;;;;;;11.38;8.20;;;12.10;99.90;;;;;;5057872;28;20028;-79
2021/10/02 02:09:17;;;;;;;10.07;9.20;;;12.10;99.90;;;;;;5045008;28;20036;-78
2021/10/02 02:11:45;;;;;;;10.40;9.55;;;12.10;99.90;;;;;;5044311;28;20051;-77
2021/10/02 02:14:14;;;;;;;10.13;9.27;;;12.10;99.90;;;;;;5054072;28;20104;-77
2021/10/02 02:16:43;;;;;;;10.02;9.02;;;12.10;99.90;;;;;;5053790;28;20029;-78
2021/10/02 02:19:11;;;;;;;11.35;10.35;;;12.10;99.90;;;;;;5052733;28;20029;-78
2021/10/02 02:21:37;;;;;;;12.02;10.80;;;12.10;99.90;;;;;;5036702;28;20036;-77
2021/10/02 02:24:04;;;;;;;9.60;8.73;;;12.10;99.90;;;;;;5055232;28;20036;-77
2021/10/02 02:26:31;;;;;;;10.75;9.75;;;12.10;99.90;;;;;;5036855;28;20028;-78
2021/10/02 02:28:58;;;;;;;9.43;8.52;;;12.10;99.90;;;;;;5054146;28;20039;-78
2021/10/02 02:31:25;;;;;;;10.95;8.63;;;12.10;99.90;;;;;;5056871;28;20027;-78
2021/10/02 02:33:52;;;;;;;8.13;7.43;;;12.10;99.90;;;;;;5052545;28;20043;-77
2021/10/02 02:36:20;;;;;;;12.95;8.82;;;12.10;99.90;;;;;;5052724;28;20036;-77
2021/10/02 02:38:47;;;;;;;8.52;7.70;;;12.10;99.90;;;;;;5051318;28;20045;-77
2021/10/02 02:41:13;;;;;;;6.82;6.20;;;12.20;99.90;;;;;;5035947;28;20037;-77
2021/10/02 02:43:39;;;;;;;9.50;7.55;;;12.20;99.90;;;;;;5045626;28;20033;-77
2021/10/02 02:46:29;;;;;;;9.90;7.93;;;12.20;99.90;;;;;;5052690;28;20052;-78
2021/10/02 02:49:09;;;;;;;6.68;6.18;;;12.20;99.90;;;;;;5052020;28;20476;-78
2021/10/02 02:52:00;;;;;;;9.00;5.93;;;12.20;99.90;;;;;;5034663;28;20025;-78
2021/10/02 02:54:29;;;;;;;;;;;12.20;99.90;;;;;;5053009;28;20466;-77
2021/10/02 02:57:02;;;;;;;5.50;5.10;;;12.20;99.90;;;;;;5051793;28;19904;-77
2021/10/02 02:59:34;;;;;;;6.18;5.68;;;12.20;99.90;;;;;;5052159;28;20033;-77
2021/10/02 03:02:03;;;;;;;6.47;5.80;;;12.10;99.90;;;;;;5051500;28;20454;-78
2021/10/02 03:04:33;;;;;;;5.97;5.47;;;12.10;99.90;;;;;;5052485;28;20041;-78
2021/10/02 03:07:02;;;;;;;6.65;5.75;;;12.10;99.90;;;;;;5052007;28;20045;-77
2021/10/02 03:09:32;;;;;;;6.32;5.78;;;12.10;99.90;;;;;;5052238;28;20060;-77
2021/10/02 03:11:59;;;;;;;6.60;6.05;;;12.00;99.90;;;;;;5059427;28;20035;-77
2021/10/02 03:14:28;;;;;;;6.15;5.55;;;12.00;99.90;;;;;;5052171;28;20021;-78
2021/10/02 03:16:55;;;;;;;7.78;7.05;;;12.00;99.90;;;;;;5051621;28;20447;-78
2021/10/02 03:19:22;;;;;;;6.18;5.68;;;12.00;99.90;;;;;;5052026;28;20035;-77
2021/10/02 03:21:50;;;;;;;5.45;4.65;;;12.10;99.90;;;;;;5051777;28;20041;-78
2021/10/02 03:24:19;;;;;;;5.90;5.32;;;12.10;99.90;;;;;;5052382;28;20025;-78
2021/10/02 03:26:47;;;;;;;6.05;5.55;;;12.10;99.90;;;;;;5071962;28;20025;-78
2021/10/02 03:29:14;;;;;;;7.47;5.85;;;12.10;99.90;;;;;;5062658;28;20037;-78
2021/10/02 03:31:41;;;;;;;6.35;5.85;;;12.10;99.90;;;;;;5036576;28;20036;-77
2021/10/02 03:34:08;;;;;;;6.20;5.70;;;12.10;99.90;;;;;;5054907;28;20024;-78
2021/10/02 03:36:34;;;;;;;9.30;6.15;;;12.00;99.90;;;;;;5051935;28;20438;-79
2021/10/02 03:39:00;;;;;;;6.53;4.93;;;12.00;99.90;;;;;;5051525;28;20044;-78
2021/10/02 03:41:27;;;;;;;6.75;5.22;;;12.00;99.90;;;;;;5034065;28;20045;-79
2021/10/02 03:43:53;;;;;;;7.57;5.75;;;12.10;99.90;;;;;;5051161;28;20028;-79
2021/10/02 03:46:22;;;;;;;5.82;5.32;;;12.10;99.90;;;;;;5051296;28;20045;-79
2021/10/02 03:48:48;;;;;;;5.25;4.85;;;12.10;99.90;;;;;;5051545;28;20044;-79
2021/10/02 03:51:14;;;;;;;5.32;4.93;;;12.10;99.90;;;;;;5059912;28;20033;-79
2021/10/02 03:53:42;;;;;;;5.03;4.55;;;12.10;99.90;;;;;;5033476;28;20476;-78
2021/10/02 03:56:09;;;;;;;6.43;5.50;;;12.00;99.90;;;;;;5051504;28;20044;-78
2021/10/02 03:58:35;;;;;;;6.80;5.72;;;12.00;99.90;;;;;;5033805;28;20037;-79
2021/10/02 04:01:02;;;;;;;4.72;4.32;;;12.00;99.90;;;;;;5051013;28;20033;-78
2021/10/02 04:03:28;;;;;;;6.50;4.53;;;12.00;99.90;;;;;;5051014;28;20397;-78
2021/10/02 04:05:54;;;;;;;5.03;3.72;;;12.00;99.90;;;;;;5051285;28;20047;-78
2021/10/02 04:08:20;;;;;;;4.43;3.20;;;12.00;99.90;;;;;;5051147;28;20504;-78
2021/10/02 04:10:46;;;;;;;5.22;4.00;;;11.90;99.90;;;;;;5051326;28;20033;-78
2021/10/02 04:13:12;;;;;;;4.95;4.38;;;11.90;99.90;;;;;;5053562;28;20029;-78
2021/10/02 04:15:39;;;;;;;3.72;3.42;;;11.80;99.90;;;;;;5055625;28;20037;-78
2021/10/02 04:18:05;;;;;;;4.63;4.18;;;11.90;99.90;;;;;;5066307;28;20040;-78
2021/10/02 04:20:31;;;;;;;9.18;5.35;;;11.80;99.90;;;;;;5059597;28;20052;-78
2021/10/02 04:22:57;;;;;;;5.07;3.63;;;11.80;99.90;;;;;;5054652;28;20029;-78
2021/10/02 04:25:24;;;;;;;5.82;3.95;;;11.80;99.90;;;;;;5054733;28;20108;-78
2021/10/02 04:27:50;;;;;;;4.53;4.03;;;11.80;99.90;;;;;;5055099;28;20035;-78
2021/10/02 04:30:16;;;;;;;4.43;4.03;;;11.80;99.90;;;;;;5054590;28;20051;-78
2021/10/02 04:32:42;;;;;;;4.40;4.00;;;11.80;99.90;;;;;;5054732;28;20029;-78
2021/10/02 04:35:08;;;;;;;3.58;3.28;;;11.70;99.90;;;;;;5037410;28;20029;-78
2021/10/02 04:37:35;;;;;;;6.25;3.30;;;11.70;99.90;;;;;;5063316;28;20025;-78
2021/10/02 04:40:01;;;;;;;4.35;3.95;;;11.70;99.90;;;;;;5054297;28;20044;-78
2021/10/02 04:42:27;;;;;;;6.63;3.92;;;11.60;99.90;;;;;;5061138;28;20032;-78
2021/10/02 04:44:53;;;;;;;3.97;3.55;;;11.50;99.90;;;;;;5064669;28;20048;-78
2021/10/02 04:47:19;;;;;;;4.82;4.25;;;11.50;99.90;;;;;;5057510;28;20033;-78
2021/10/02 04:49:46;;;;;;;5.93;5.00;;;11.40;99.90;;;;;;5055811;28;20032;-78
2021/10/02 04:52:13;;;;;;;4.63;4.03;;;11.40;99.90;;;;;;5064628;28;20029;-78
2021/10/02 04:54:39;;;;;;;4.50;4.10;;;11.40;99.90;;;;;;5063573;28;20025;-78
2021/10/02 04:57:05;;;;;;;5.45;4.28;;;11.30;99.90;;;;;;5067125;28;20403;-78
2021/10/02 04:59:31;;;;;;;9.13;4.43;;;11.40;99.90;;;;;;5039284;28;20044;-79
2021/10/02 05:01:58;;;;;;;6.20;4.55;;;11.40;99.90;;;;;;5054794;28;20033;-78
2021/10/02 05:04:24;;;;;;;4.82;4.20;;;11.40;99.90;;;;;;5054741;28;20035;-78
2021/10/02 05:06:50;;;;;;;4.95;4.00;;;11.40;99.90;;;;;;5063606;28;20040;-78
2021/10/02 05:09:18;;;;;;;5.28;4.85;;;11.40;99.90;;;;;;5061764;28;20033;-77
2021/10/02 05:11:45;;;;;;;6.45;4.85;;;11.40;99.90;;;;;;5053864;28;20032;-78
2021/10/02 05:14:11;;;;;;;5.03;4.63;;;11.40;99.90;;;;;;5054029;28;20041;-78
2021/10/02 05:16:37;;;;;;;5.57;5.03;;;11.40;99.90;;;;;;5040849;28;20036;-79
2021/10/02 05:19:03;;;;;;;5.85;5.18;;;11.30;99.90;;;;;;5053992;28;20036;-78
2021/10/02 05:21:29;;;;;;;4.47;4.07;;;11.30;99.90;;;;;;5054026;28;20044;-78
2021/10/02 05:23:56;;;;;;;6.28;4.97;;;11.30;99.90;;;;;;5053600;28;20056;-78
2021/10/02 05:26:22;;;;;;;5.65;4.80;;;11.20;99.90;;;;;;5054176;28;20029;-78
2021/10/02 05:28:48;;;;;;;6.93;5.05;;;11.20;99.90;;;;;;5057647;28;20060;-78
2021/10/02 05:31:16;;;;;;;4.28;3.97;;;11.30;99.90;;;;;;5039018;28;20017;-78
2021/10/02 05:33:42;;;;;;;5.50;5.10;;;11.30;99.90;;;;;;5054954;28;20041;-77
2021/10/02 05:36:09;;;;;;;5.65;5.10;;;11.30;99.90;;;;;;5054829;28;20032;-77
2021/10/02 05:38:35;;;;;;;5.88;5.20;;;11.30;99.90;;;;;;5053886;28;20040;-78
2021/10/02 05:41:01;;;;;;;5.53;5.03;;;11.30;99.90;;;;;;5035721;28;20466;-77
2021/10/02 05:43:27;;;;;;;9.02;5.40;;;11.30;99.90;;;;;;5052924;28;20051;-77
2021/10/02 05:45:53;;;;;;;5.13;4.63;;;11.30;99.90;;;;;;5061453;28;20045;-77
2021/10/02 05:48:20;;;;;;;6.15;4.72;;;11.20;99.90;;;;;;5058526;28;20025;-78
2021/10/02 05:50:46;;;;;;;4.53;4.13;;;11.20;99.90;;;;;;5056155;28;20036;-78
2021/10/02 05:53:12;;;;;;;5.88;4.30;;;11.20;99.90;;;;;;5052315;28;20048;-78
2021/10/02 05:55:38;;;;;;;5.05;4.35;;;11.20;99.90;;;;;;5053735;28;20040;-79
2021/10/02 05:58:05;;;;;;;7.10;4.85;;;11.20;99.90;;;;;;5052972;28;20366;-79
2021/10/02 06:00:31;;;;;;;4.30;3.95;;;11.30;99.90;;;;;;5053251;28;20454;-77
2021/10/02 06:02:59;;;;;;;5.00;4.60;;;11.30;99.90;;;;;;5051531;28;20040;-78
2021/10/02 06:05:26;;;;;;;10.25;4.18;;;11.40;99.90;;;;;;5053393;28;20051;-78
2021/10/02 06:07:54;;;;;;;4.72;4.32;;;11.50;99.90;;;;;;5052650;28;20029;-79
2021/10/02 06:10:21;;;;;;;5.75;4.15;;;11.50;99.90;;;;;;5053187;28;20029;-78
2021/10/02 06:12:53;;;;;;;4.72;3.63;;;11.60;99.90;;;;;;5035266;28;20033;-78
2021/10/02 06:15:23;;;;;;;3.33;2.88;;;11.70;99.90;;;;;;5054053;28;20041;-80
2021/10/02 06:17:53;;;;;;;4.30;3.35;;;11.80;99.90;;;;;;5066320;28;20029;-79
2021/10/02 06:20:20;;;;;;;3.17;2.90;;;11.90;99.90;;;;;;5064145;28;20041;-79
2021/10/02 06:22:46;;;;;;;2.92;2.70;;;11.90;99.90;;;;;;5067252;28;20033;-78
2021/10/02 06:25:14;;;;;;;3.03;2.72;;;12.00;99.90;;;;;;5055902;28;20025;-78
2021/10/02 06:27:40;;;;;;;3.78;2.40;;;12.10;99.90;;;;;;5053896;28;20033;-78
2021/10/02 06:30:08;;;;;;;3.22;2.58;;;12.30;99.90;;;;;;5053058;28;20037;-78
2021/10/02 06:32:35;;;;;;;4.07;2.97;;;12.40;99.90;;;;;;5053737;28;20039;-79
2021/10/02 06:35:02;;;;;;;4.93;2.15;;;12.50;99.90;;;;;;5052225;28;20458;-79
2021/10/02 06:37:28;;;;;;;2.55;2.20;;;12.60;99.90;;;;;;5068229;28;20029;-80
2021/10/02 06:39:54;;;;;;;3.60;2.58;;;12.70;99.90;;;;;;5072873;28;20029;-80
2021/10/02 06:42:21;;;;;;;3.58;2.17;;;12.90;99.90;;;;;;5061559;28;20032;-82
2021/10/02 06:44:48;;;;;;;3.42;2.63;;;13.10;99.90;;;;;;5037873;28;20052;-81
2021/10/02 06:47:14;;;;;;;2.17;1.98;;;12.90;99.90;;;;;;5054536;28;20042;-82
2021/10/02 06:49:40;;;;;;;2.20;2.00;;;13.00;99.90;;;;;;5055219;28;20029;-81
2021/10/02 06:52:09;;;;;;;2.70;1.70;;;13.00;99.90;;;;;;5053549;28;20024;-81
2021/10/02 06:54:38;;;;;;;3.08;2.47;;;13.10;99.90;;;;;;5061735;28;20028;-81
2021/10/02 06:57:07;;;;;;;2.85;2.10;;;13.20;99.90;;;;;;5056421;28;20028;-80
2021/10/02 06:59:33;;;;;;;1.80;1.55;;;13.20;99.90;;;;;;5064607;28;20040;-81
2021/10/02 07:02:00;;;;;;;4.38;1.77;;;13.20;99.90;;;;;;5052198;28;20033;-81
2021/10/02 07:04:26;;;;;;;3.30;1.98;;;13.30;99.90;;;;;;5055198;28;20362;-82
2021/10/02 07:06:52;;;;;;;2.03;1.70;;;13.50;99.90;;;;;;5067652;28;20037;-81
2021/10/02 07:09:18;;;;;;;9.70;2.22;;;13.70;99.90;;;;;;5044958;28;20040;-81
2021/10/02 07:11:45;;;;;;;3.38;2.55;;;14.30;99.90;;;;;;5053751;28;20045;-81
2021/10/02 07:14:12;;;;;;;1.70;1.55;;;14.80;99.20;;;;;;5044919;28;20044;-81
2021/10/02 07:16:38;;;;;;;2.35;1.55;;;15.20;97.60;;;;;;5056501;28;20450;-83
2021/10/02 07:19:04;;;;;;;5.13;2.08;;;15.30;95.70;;;;;;5045626;28;20278;-83
2021/10/02 07:21:30;;;;;;;2.50;1.60;;;15.10;94.80;;;;;;5058420;28;20028;-83
2021/10/02 07:23:57;;;;;;;2.15;1.88;;;15.20;95.00;;;;;;5034485;28;20044;-82
2021/10/02 07:26:23;;;;;;;15.32;2.45;;;15.30;94.60;;;;;;5052824;28;20025;-82
2021/10/02 07:28:49;;;;;;;2.00;1.60;;;15.20;94.20;;;;;;5052432;28;20025;-81
2021/10/02 07:31:16;;;;;;;2.58;1.98;;;15.20;93.50;;;;;;5053071;28;20473;-84
2021/10/02 07:33:43;;;;;;;3.45;1.65;;;15.30;93.70;;;;;;5055151;28;20032;-85
2021/10/02 07:36:09;;;;;;;3.40;2.35;;;15.60;92.90;;;;;;5054178;28;20021;-85
2021/10/02 07:38:35;;;;;;;1.58;1.35;;;15.80;91.80;;;;;;5054455;28;20032;-84
2021/10/02 07:41:02;;;;;;;1.73;1.50;;;16.00;91.50;;;;;;5053046;28;20470;-84
2021/10/02 07:43:31;;;;;;;2.33;2.08;;;16.30;90.50;;;;;;5054739;28;20040;-84
2021/10/02 07:45:58;;;;;;;2.50;1.60;;;16.60;90.30;;;;;;5052974;28;20048;-86
2021/10/02 07:48:25;;;;;;;1.30;1.20;;;16.70;87.40;;;;;;5058132;28;20052;-84
2021/10/02 07:50:54;;;;;;;3.30;1.58;;;16.70;85.30;;;;;;5064454;28;20041;-83
2021/10/02 07:53:23;;;;;;;2.28;1.60;;;16.80;86.20;;;;;;5061148;28;20378;-85
2021/10/02 07:55:51;;;;;;;2.20;1.42;;;16.90;85.10;;;;;;5063064;28;20029;-81
2021/10/02 07:58:22;;;;;;;1.90;1.65;;;17.00;84.90;;;;;;5061492;28;20025;-83
2021/10/02 08:00:52;;;;;;;3.75;2.03;;;17.30;83.30;;;;;;5077454;28;20446;-88
2021/10/02 08:03:20;;;;;;;2.33;1.80;;;17.40;81.80;;;;;;5074968;28;20041;-84
2021/10/02 08:05:46;;;;;;;1.42;1.33;;;17.50;82.20;;;;;;5055625;28;20029;-82
2021/10/02 08:08:16;;;;;;;4.25;2.20;;;18.00;80.30;;;;;;5056453;28;20052;-77
2021/10/02 08:10:44;;;;;;;3.13;1.98;;;18.00;79.30;;;;;;5055430;28;20029;-78
2021/10/02 08:13:14;;;;;;;4.57;2.08;;;18.30;77.70;;;;;;5056005;28;20044;-83
2021/10/02 08:15:54;;;;;;;2.40;1.85;;;18.40;76.70;;;;;;5049955;28;20393;-75
2021/10/02 08:18:23;;;;;;;;;;;18.70;74.90;;;;;;5054740;28;20044;-77
2021/10/02 08:20:49;;;;;;;3.25;2.30;;;18.90;73.90;;;;;;5055746;28;20265;-80
2021/10/02 08:23:17;;;;;;;4.15;2.47;;;18.90;72.50;;;;;;5055833;28;20032;-80
2021/10/02 08:25:48;;;;;;;3.20;2.28;;;18.80;73.50;;;;;;5056197;28;20055;-79
2021/10/02 08:28:15;;;;;;;3.17;2.50;;;19.20;71.10;;;;;;5056756;28;20025;-79
2021/10/02 08:30:44;;;;;;;3.35;1.88;;;19.60;70.30;;;;;;5054189;28;20044;-78
2021/10/02 08:33:11;;;;;;;3.58;1.85;;;19.70;69.00;;;;;;5066531;28;20040;-76
2021/10/02 08:35:38;;;;;;;8.50;2.67;;;19.90;68.40;;;;;;5075544;28;20032;-78
2021/10/02 08:38:05;;;;;;;3.13;2.30;;;20.20;67.80;;;;;;5071642;28;20028;-78
2021/10/02 08:40:31;;;;;;;3.20;2.28;;;20.20;68.20;;;;;;5061599;28;20454;-79
2021/10/02 08:42:57;;;;;;;2.42;2.22;;;20.60;66.30;;;;;;5074426;28;20040;-80
2021/10/02 08:45:29;;;;;;;4.13;2.17;;;21.40;66.80;;;;;;5074947;28;20042;-82
2021/10/02 08:47:58;;;;;;;4.25;2.00;;;21.80;62.90;;;;;;5064807;28;20025;-79
2021/10/02 08:50:26;;;;;;;2.42;1.88;;;21.40;62.80;;;;;;5055900;28;20033;-85
2021/10/02 08:52:53;;;;;;;1.98;1.70;;;21.20;63.40;;;;;;5034141;28;20033;-84
2021/10/02 08:55:22;;;;;;;2.40;2.17;;;21.50;62.60;;;;;;5070598;28;20033;-81
2021/10/02 08:57:50;;;;;;;2.65;1.95;;;21.50;62.50;;;;;;5063029;28;20033;-83
2021/10/02 09:00:23;;;;;;;4.82;2.47;;;21.90;60.90;;;;;;5060813;28;20028;-84
2021/10/02 09:02:51;;;;;;;2.92;2.42;;;21.70;61.30;;;;;;5049612;28;20041;-80
2021/10/02 09:05:19;;;;;;;2.53;2.30;;;21.50;62.20;;;;;;5054503;28;20032;-81
2021/10/02 09:07:48;;;;;;;2.00;1.52;;;21.90;61.20;;;;;;5055549;28;20351;-83
2021/10/02 09:10:15;;;;;;;2.67;1.98;;;22.10;61.00;;;;;;5053736;28;20029;-80
2021/10/02 09:12:43;;;;;;;2.50;1.83;;;22.00;59.10;;;;;;5070121;28;20032;-79
2021/10/02 09:15:10;;;;;;;3.50;2.15;;;21.30;60.00;;;;;;5062311;28;20029;-79
2021/10/02 09:17:37;;;;;;;2.38;1.40;;;21.50;60.70;;;;;;5055206;28;20446;-78
2021/10/02 09:20:07;;;;;;;2.33;1.83;;;21.50;60.00;;;;;;5053641;28;20028;-75
2021/10/02 09:22:33;;;;;;;3.33;2.60;;;20.90;61.20;;;;;;5053955;28;20025;-79
2021/10/02 09:25:02;;;;;;;3.00;1.38;;;20.90;61.60;;;;;;5052681;28;20021;-77
2021/10/02 09:27:33;;;;;;;2.45;1.92;;;21.10;61.30;;;;;;5053694;28;20028;-77
2021/10/02 09:30:11;;;;;;;3.70;2.33;;;20.70;62.30;;;;;;5053253;28;20028;-77
2021/10/02 09:32:41;;;;;;;2.05;1.85;;;20.90;60.80;;;;;;5039245;28;20354;-77
2021/10/02 09:35:16;;;;;;;2.20;2.00;;;20.60;61.40;;;;;;5053311;28;20254;-76
2021/10/02 09:37:45;;;;;;;3.08;2.22;;;20.50;62.20;;;;;;5018962;28;20373;-78
2021/10/02 09:40:20;;;;;;;4.50;2.65;;;19.80;63.50;;;;;;5052730;28;20032;-75
2021/10/02 09:42:52;;;;;;;2.53;1.95;;;19.60;64.30;;;;;;5035786;28;20493;-76
2021/10/02 09:45:30;;;;;;;2.33;2.03;;;19.70;64.60;;;;;;5057912;28;20050;-76
2021/10/02 09:47:59;;;;;;;2.05;1.85;;;19.40;64.10;;;;;;5051358;28;20037;-75
2021/10/02 09:50:37;;;;;;;2.53;1.92;;;19.40;63.90;;;;;;5053249;28;20029;-76
2021/10/02 09:53:12;;;;;;;2.67;2.22;;;19.40;63.20;;;;;;5047080;28;20029;-75
2021/10/02 09:55:47;;;;;;;4.25;2.50;;;19.60;63.10;;;;;;5063508;28;20024;-74
2021/10/02 09:58:32;;;;;;;1.77;1.67;;;19.60;63.00;;;;;;5050430;28;20052;-76
2021/10/02 10:01:01;;;;;;;3.75;2.35;;;19.40;62.60;;;;;;5051354;28;20056;-77
2021/10/02 10:03:41;;;;;;;3.90;2.42;;;19.50;62.80;;;;;;5045296;28;20748;-75
2021/10/02 10:06:23;;;;;;;2.08;1.88;;;19.50;62.20;;;;;;5050273;28;20486;-76
2021/10/02 10:09:08;;;;;;;2.22;2.03;;;19.30;62.90;;;;;;5043596;28;20036;-80
2021/10/02 10:11:46;;;;;;;1.77;1.55;;;19.50;62.90;;;;;;5056851;28;20397;-78
2021/10/02 10:14:21;;;;;;;2.83;2.08;;;19.60;61.00;;;;;;5052542;28;20052;-76
2021/10/02 10:16:47;;;;;;;1.30;1.20;;;20.00;61.90;;;;;;5069306;28;20049;-76
2021/10/02 10:19:28;;;;;;;1.70;1.58;;;20.40;60.70;;;;;;5071450;28;20114;-76
2021/10/02 10:22:11;;;;;;;;;;;20.10;59.40;;;;;;5061875;28;20048;-75
2021/10/02 10:24:39;;;;;;;1.50;1.35;;;20.10;59.60;;;;;;5053228;28;19909;-75
2021/10/02 10:27:06;;;;;;;1.98;1.52;;;20.00;59.30;;;;;;5064559;28;20036;-75
2021/10/02 10:29:41;;;;;;;3.25;2.53;;;19.90;60.10;;;;;;5053289;28;20087;-75
2021/10/02 10:32:09;;;;;;;3.47;1.50;;;20.10;60.20;;;;;;5053079;28;20029;-75
2021/10/02 10:34:40;;;;;;;1.98;1.70;;;20.20;58.80;;;;;;5052941;28;20033;-76
2021/10/02 10:37:08;;;;;;;1.77;1.55;;;20.10;58.10;;;;;;5052351;28;20036;-75
2021/10/02 10:39:35;;;;;;;1.75;1.63;;;20.20;57.90;;;;;;5052245;28;20036;-76
2021/10/02 10:42:03;;;;;;;1.95;1.58;;;20.60;57.10;;;;;;5064482;28;20040;-76
2021/10/02 10:44:30;;;;;;;1.48;1.17;;;20.70;56.50;;;;;;5053068;28;20052;-76
2021/10/02 10:46:57;;;;;;;3.13;1.30;;;20.60;56.40;;;;;;5052156;28;20367;-75
2021/10/02 10:49:26;;;;;;;2.08;1.33;;;20.50;56.10;;;;;;5052511;28;20036;-74
2021/10/02 10:51:57;;;;;;;2.67;1.80;;;20.60;57.20;;;;;;5052289;28;20044;-75
2021/10/02 10:54:24;;;;;;;2.10;1.88;;;20.60;57.50;;;;;;5052143;28;20470;-75
2021/10/02 10:56:50;;;;;;;3.25;1.40;;;20.30;57.60;;;;;;5051577;28;20036;-75
2021/10/02 10:59:19;;;;;;;1.38;1.27;;;20.20;58.40;;;;;;5052303;28;20063;-74
2021/10/02 11:01:48;;;;;;;1.50;1.40;;;20.10;58.20;;;;;;5052097;28;20470;-74
2021/10/02 11:04:36;;;;;;;1.20;1.00;;;20.00;58.20;;;;;;5051563;28;20478;-75
2021/10/02 11:07:05;;;;;;;2.22;1.20;;;19.90;58.50;;;;;;5051863;28;20386;-75
2021/10/02 11:09:44;;;;;;;2.97;1.50;;;19.70;59.70;;;;;;5034393;28;20379;-75
2021/10/02 11:12:12;;;;;;;3.13;1.77;;;19.70;60.60;;;;;;5050354;28;20033;-75
2021/10/02 11:14:47;;;;;;;2.00;1.70;;;19.60;61.20;;;;;;5052167;28;20028;-75
2021/10/02 11:17:29;;;;;;;2.33;1.50;;;19.50;60.90;;;;;;5051649;28;20036;-75
2021/10/02 11:19:55;;;;;;;4.90;3.40;;;19.70;61.40;;;;;;5051763;28;20041;-76
2021/10/02 11:23:07;;;;;;;7.05;2.58;;;19.80;61.00;;;;;;5034049;28;20386;-74
2021/10/02 11:25:35;;;;;;;2.30;2.10;;;20.10;60.90;;;;;;5052405;28;20462;-75
2021/10/02 11:28:26;;;;;;;2.40;2.20;;;20.40;60.70;;;;;;5051831;28;20466;-74
2021/10/02 11:30:54;;;;;;;4.55;1.92;;;20.80;59.80;;;;;;5052171;28;20033;-76
2021/10/02 11:33:57;;;;;;;3.42;1.85;;;21.00;59.50;;;;;;5052027;28;20040;-75
2021/10/02 11:36:31;;;;;;;4.20;1.17;;;20.90;59.30;;;;;;5051944;28;20498;-73
2021/10/02 11:39:15;;;;;;;3.47;1.85;;;21.10;58.80;;;;;;5034240;28;20040;-73
2021/10/02 11:41:48;;;;;;;4.35;1.85;;;20.90;59.20;;;;;;5051870;28;20044;-74
2021/10/02 11:44:32;;;;;;;1.52;1.15;;;20.80;59.20;;;;;;5051569;28;20038;-76
2021/10/02 11:47:34;;;;;;;2.13;1.60;;;20.60;59.10;;;;;;5051743;28;20386;-74
2021/10/02 11:50:12;;;;;;;5.65;2.58;;;20.60;58.60;;;;;;5051578;28;20035;-73
2021/10/02 11:53:00;;;;;;;2.45;1.48;;;20.80;58.80;;;;;;5052291;28;20032;-74
2021/10/02 11:55:35;;;;;;;4.10;1.92;;;20.90;57.40;;;;;;5047973;28;20037;-74
2021/10/02 11:58:11;;;;;;;2.20;1.52;;;20.90;57.60;;;;;;5047578;28;20382;-75
2021/10/02 12:01:00;;;;;;;1.63;1.20;;;21.20;57.40;;;;;;5061083;28;20052;-77
2021/10/02 12:03:29;;;;;;;2.50;1.30;;;21.40;57.10;;;;;;5052516;28;20036;-74
2021/10/02 12:05:58;;;;;;;2.08;1.85;;;21.40;57.10;;;;;;5059547;28;20309;-74
2021/10/02 12:08:25;;;;;;;2.55;1.40;;;21.30;57.30;;;;;;5066670;28;20044;-75
2021/10/02 12:10:53;;;;;;;2.45;1.63;;;21.30;56.50;;;;;;5052026;28;20044;-76
2021/10/02 12:13:23;;;;;;;2.08;1.50;;;21.30;56.30;;;;;;5053135;28;20478;-74
2021/10/02 12:16:02;;;;;;;1.27;1.17;;;21.10;57.10;;;;;;5049871;28;20049;-75
2021/10/02 12:18:50;;;;;;;2.07;1.83;;;21.10;57.30;;;;;;5016439;28;20044;-76
2021/10/02 12:21:22;;;;;;;1.38;1.27;;;21.00;56.60;;;;;;5051325;28;20378;-74
2021/10/02 12:23:52;;;;;;;1.48;0.98;;;20.80;55.90;;;;;;5034316;28;20033;-73
2021/10/02 12:26:19;;;;;;;5.07;1.50;;;20.60;56.90;;;;;;5051444;28;20029;-75
2021/10/02 12:28:46;;;;;;;1.80;1.60;;;20.50;57.10;;;;;;5034511;28;20029;-74
2021/10/02 12:31:12;;;;;;;1.55;1.40;;;20.50;57.60;;;;;;5047816;28;20041;-75
2021/10/02 12:33:38;;;;;;;2.45;2.17;;;20.40;57.60;;;;;;5053969;28;20025;-75
2021/10/02 12:36:05;;;;;;;1.33;1.23;;;20.40;58.00;;;;;;5055450;28;20378;-74
2021/10/02 12:38:45;;;;;;;4.53;1.33;;;20.50;57.80;;;;;;5056175;28;20402;-75
2021/10/02 12:41:11;;;;;;;3.28;1.67;;;20.80;58.00;;;;;;5070032;28;20513;-76
2021/10/02 12:43:37;;;;;;;1.45;1.30;;;20.90;57.40;;;;;;5059257;28;20095;-73
2021/10/02 12:46:18;;;;;;;2.28;1.30;;;21.00;58.00;;;;;;5063084;28;20053;-75
2021/10/02 12:48:45;;;;;;;2.25;1.67;;;21.10;56.60;;;;;;5057474;28;20048;-74
2021/10/02 12:51:12;;;;;;;2.60;1.23;;;21.10;56.60;;;;;;5055833;28;20040;-77
2021/10/02 12:53:39;;;;;;;1.50;1.02;;;21.10;57.80;;;;;;5039814;28;20033;-74
2021/10/02 12:56:17;;;;;;;1.52;1.23;;;21.10;57.20;;;;;;5056587;28;20029;-73
2021/10/02 12:58:44;;;;;;;1.77;1.38;;;21.00;57.20;;;;;;5056296;28;20406;-74
2021/10/02 13:01:10;;;;;;;2.80;1.65;;;21.10;57.70;;;;;;5056362;28;20483;-74
2021/10/02 13:03:40;;;;;;;1.70;1.52;;;21.30;57.20;;;;;;5056009;28;20029;-75
2021/10/02 13:06:06;;;;;;;2.25;1.17;;;21.40;56.80;;;;;;5057899;28;20462;-76
2021/10/02 13:08:33;;;;;;;1.10;1.00;;;21.40;56.80;;;;;;5073742;28;20048;-78
2021/10/02 13:11:00;;;;;;;1.25;1.10;;;21.40;56.70;;;;;;5059592;28;20449;-75
2021/10/02 13:13:26;;;;;;;2.55;1.42;;;21.30;56.10;;;;;;5073390;28;20365;-77
2021/10/02 13:15:55;;;;;;;1.33;0.82;;;21.40;55.40;;;;;;5066324;28;20039;-81
2021/10/02 13:18:23;;;;;;;2.58;1.27;;;21.50;54.70;;;;;;5064444;28;20044;-77
2021/10/02 13:20:53;;;;;;;1.70;1.02;;;21.50;54.80;;;;;;5046765;28;20045;-77
2021/10/02 13:23:19;;;;;;;3.35;1.23;;;21.70;54.10;;;;;;5069445;28;20471;-79
2021/10/02 13:25:47;;;;;;;9.00;7.50;;;21.60;53.90;;;;;;5056269;28;20033;-77
2021/10/02 13:28:43;;;;;;;3.90;3.60;;;21.60;55.50;;;;;;5066940;28;20453;-77
2021/10/02 13:31:15;;;;;;;1.58;1.08;;;21.80;54.30;;;;;;5058997;28;20045;-78
2021/10/02 13:33:50;;;;;;;2.05;1.05;;;21.90;54.70;;;;;;5038521;28;20037;-79
2021/10/02 13:36:31;;;;;;;1.13;1.02;;;22.00;54.10;;;;;;5069877;28;20051;-77
2021/10/02 13:39:27;;;;;;;1.83;1.13;;;22.10;53.70;;;;;;5053603;28;20037;-79
2021/10/02 13:41:53;;;;;;;1.50;1.17;;;22.30;54.20;;;;;;5037582;28;20037;-79
2021/10/02 13:44:34;;;;;;;1.58;1.15;;;22.30;53.50;;;;;;5036755;28;20032;-77
2021/10/02 13:47:03;;;;;;;1.40;0.93;;;22.20;53.50;;;;;;5054927;28;20040;-78
2021/10/02 13:49:30;;;;;;;1.87;1.53;;;22.10;53.10;;;;;;5054718;28;20036;-77
2021/10/02 13:51:57;;;;;;;1.23;1.10;;;22.20;53.50;;;;;;5036552;28;20040;-77